sensor_id;sensor_type;location;lat;lon;timestamp;pressure;altitude;pressure_sealevel;temperature;humidity
76603;BME280;65075;48.390;17.598;2023-12-20T00:02:12;99818.44;;;-0.14;86.52
76603;BME280;65075;48.390;17.598;2023-12-20T00:04:38;99796.16;;;0.47;82.84
76603;BME280;65075;48.390;17.598;2023-12-20T00:07:05;99802.34;;;2.59;74.09
76603;BME280;65075;48.390;17.598;2023-12-20T00:09:32;99796.06;;;1.82;76.13
76603;BME280;65075;48.390;17.598;2023-12-20T00:11:58;99790.56;;;2.34;73.13
76603;BME280;65075;48.390;17.598;2023-12-20T00:14:27;99801.81;;;1.92;74.04
76603;BME280;65075;48.390;17.598;2023-12-20T00:16:55;99804.50;;;3.26;70.31
76603;BME280;65075;48.390;17.598;2023-12-20T00:19:21;99805.53;;;1.38;80.62
76603;BME280;65075;48.390;17.598;2023-12-20T00:21:48;99739.34;;;1.96;73.49
76603;BME280;65075;48.390;17.598;2023-12-20T00:24:15;99792.31;;;0.22;81.47
76603;BME280;65075;48.390;17.598;2023-12-20T00:26:43;99789.41;;;1.38;76.41
76603;BME280;65075;48.390;17.598;2023-12-20T00:29:09;99798.69;;;1.29;79.84
76603;BME280;65075;48.390;17.598;2023-12-20T00:31:35;99793.56;;;2.00;75.55
76603;BME280;65075;48.390;17.598;2023-12-20T00:34:02;99796.00;;;2.21;74.40
76603;BME280;65075;48.390;17.598;2023-12-20T00:36:30;99788.31;;;4.07;68.26
76603;BME280;65075;48.390;17.598;2023-12-20T00:38:57;99774.13;;;1.58;75.17
76603;BME280;65075;48.390;17.598;2023-12-20T00:41:23;99788.69;;;2.99;71.41
76603;BME280;65075;48.390;17.598;2023-12-20T00:43:50;99774.09;;;1.98;77.43
76603;BME280;65075;48.390;17.598;2023-12-20T00:46:16;99779.78;;;4.10;67.09
76603;BME280;65075;48.390;17.598;2023-12-20T00:48:43;99765.41;;;4.16;66.83
76603;BME280;65075;48.390;17.598;2023-12-20T00:51:12;99746.16;;;2.63;69.55
76603;BME280;65075;48.390;17.598;2023-12-20T00:53:39;99780.16;;;0.80;78.36
76603;BME280;65075;48.390;17.598;2023-12-20T00:56:06;99768.25;;;0.96;82.09
76603;BME280;65075;48.390;17.598;2023-12-20T00:58:33;99743.72;;;-0.24;82.08
76603;BME280;65075;48.390;17.598;2023-12-20T01:00:59;99766.50;;;0.21;84.32
76603;BME280;65075;48.390;17.598;2023-12-20T01:03:26;99758.78;;;1.26;79.81
76603;BME280;65075;48.390;17.598;2023-12-20T01:05:53;99760.06;;;3.60;70.17
76603;BME280;65075;48.390;17.598;2023-12-20T01:08:20;99763.75;;;3.10;73.29
76603;BME280;65075;48.390;17.598;2023-12-20T01:10:46;99751.38;;;3.58;69.51
76603;BME280;65075;48.390;17.598;2023-12-20T01:13:14;99764.94;;;0.94;79.66
76603;BME280;65075;48.390;17.598;2023-12-20T01:15:41;99764.22;;;1.65;77.18
76603;BME280;65075;48.390;17.598;2023-12-20T01:18:08;99745.81;;;2.46;74.38
76603;BME280;65075;48.390;17.598;2023-12-20T01:20:35;99739.66;;;3.71;70.21
76603;BME280;65075;48.390;17.598;2023-12-20T01:23:01;99755.25;;;3.06;70.32
76603;BME280;65075;48.390;17.598;2023-12-20T01:25:28;99734.31;;;3.64;68.35
76603;BME280;65075;48.390;17.598;2023-12-20T01:27:55;99712.06;;;3.93;68.14
76603;BME280;65075;48.390;17.598;2023-12-20T01:30:22;99690.50;;;0.75;75.82
76603;BME280;65075;48.390;17.598;2023-12-20T01:32:49;99704.19;;;1.71;76.73
76603;BME280;65075;48.390;17.598;2023-12-20T01:35:15;99701.09;;;2.45;73.30
76603;BME280;65075;48.390;17.598;2023-12-20T01:37:42;99692.66;;;2.73;71.84
76603;BME280;65075;48.390;17.598;2023-12-20T01:40:10;99687.31;;;0.38;78.89
76603;BME280;65075;48.390;17.598;2023-12-20T01:42:36;99702.38;;;1.39;78.34
76603;BME280;65075;48.390;17.598;2023-12-20T01:45:04;99720.41;;;3.11;71.43
76603;BME280;65075;48.390;17.598;2023-12-20T01:47:31;99706.28;;;1.50;76.85
76603;BME280;65075;48.390;17.598;2023-12-20T01:49:58;99701.13;;;1.35;75.69
76603;BME280;65075;48.390;17.598;2023-12-20T01:52:26;99691.31;;;2.00;73.98
76603;BME280;65075;48.390;17.598;2023-12-20T01:54:54;99691.97;;;1.69;75.88
76603;BME280;65075;48.390;17.598;2023-12-20T01:57:23;99677.72;;;2.39;72.75
76603;BME280;65075;48.390;17.598;2023-12-20T01:59:50;99654.28;;;1.89;75.88
76603;BME280;65075;48.390;17.598;2023-12-20T02:02:18;99697.38;;;3.15;72.16
76603;BME280;65075;48.390;17.598;2023-12-20T02:04:45;99690.38;;;3.57;69.15
76603;BME280;65075;48.390;17.598;2023-12-20T02:07:12;99647.53;;;0.75;76.53
76603;BME280;65075;48.390;17.598;2023-12-20T02:09:40;99640.06;;;0.50;80.82
76603;BME280;65075;48.390;17.598;2023-12-20T02:12:08;99642.69;;;1.95;75.29
76603;BME280;65075;48.390;17.598;2023-12-20T02:14:34;99680.91;;;2.61;75.10
76603;BME280;65075;48.390;17.598;2023-12-20T02:17:01;99638.53;;;3.06;70.92
76603;BME280;65075;48.390;17.598;2023-12-20T02:19:29;99641.91;;;3.51;69.79
76603;BME280;65075;48.390;17.598;2023-12-20T02:22:13;99650.63;;;1.63;75.06
76603;BME280;65075;48.390;17.598;2023-12-20T02:24:41;99670.31;;;1.05;79.19
76603;BME280;65075;48.390;17.598;2023-12-20T02:27:08;99657.78;;;0.38;80.95
76603;BME280;65075;48.390;17.598;2023-12-20T02:29:36;99630.72;;;1.91;75.89
76603;BME280;65075;48.390;17.598;2023-12-20T02:32:03;99597.09;;;1.49;76.93
76603;BME280;65075;48.390;17.598;2023-12-20T02:34:30;99625.25;;;1.07;77.89
76603;BME280;65075;48.390;17.598;2023-12-20T02:36:57;99618.84;;;2.05;74.08
76603;BME280;65075;48.390;17.598;2023-12-20T02:39:23;99606.63;;;0.53;79.61
76603;BME280;65075;48.390;17.598;2023-12-20T02:41:50;99589.88;;;-0.29;83.34
76603;BME280;65075;48.390;17.598;2023-12-20T02:44:17;99627.97;;;0.94;81.31
76603;BME280;65075;48.390;17.598;2023-12-20T02:46:44;99616.97;;;1.48;75.46
76603;BME280;65075;48.390;17.598;2023-12-20T02:49:11;99619.06;;;0.74;81.53
76603;BME280;65075;48.390;17.598;2023-12-20T02:51:38;99617.00;;;1.02;79.03
76603;BME280;65075;48.390;17.598;2023-12-20T02:54:05;99587.66;;;0.68;81.22
76603;BME280;65075;48.390;17.598;2023-12-20T02:56:34;99620.66;;;2.55;74.62
76603;BME280;65075;48.390;17.598;2023-12-20T02:59:01;99628.19;;;2.40;71.82
76603;BME280;65075;48.390;17.598;2023-12-20T03:01:29;99630.41;;;2.56;73.25
76603;BME280;65075;48.390;17.598;2023-12-20T03:03:56;99618.22;;;2.47;72.93
76603;BME280;65075;48.390;17.598;2023-12-20T03:06:22;99632.72;;;2.46;72.14
76603;BME280;65075;48.390;17.598;2023-12-20T03:08:50;99581.66;;;3.38;69.48
76603;BME280;65075;48.390;17.598;2023-12-20T03:11:16;99588.88;;;2.95;70.25
76603;BME280;65075;48.390;17.598;2023-12-20T03:13:43;99620.50;;;1.09;77.24
76603;BME280;65075;48.390;17.598;2023-12-20T03:16:11;99609.38;;;1.96;77.39
76603;BME280;65075;48.390;17.598;2023-12-20T03:18:39;99609.34;;;0.99;80.73
76603;BME280;65075;48.390;17.598;2023-12-20T03:21:06;99613.47;;;1.21;82.16
76603;BME280;65075;48.390;17.598;2023-12-20T03:23:33;99557.09;;;1.79;75.35
76603;BME280;65075;48.390;17.598;2023-12-20T03:25:59;99611.28;;;3.99;70.28
76603;BME280;65075;48.390;17.598;2023-12-20T03:28:27;99606.28;;;4.33;68.22
76603;BME280;65075;48.390;17.598;2023-12-20T03:30:52;99577.81;;;5.59;62.82
76603;BME280;65075;48.390;17.598;2023-12-20T03:33:19;99593.81;;;5.61;62.38
76603;BME280;65075;48.390;17.598;2023-12-20T03:35:45;99582.19;;;4.61;65.73
76603;BME280;65075;48.390;17.598;2023-12-20T03:38:11;99574.66;;;5.04;64.47
76603;BME280;65075;48.390;17.598;2023-12-20T03:40:38;99562.72;;;1.70;74.12
76603;BME280;65075;48.390;17.598;2023-12-20T03:43:05;99580.38;;;1.98;76.36
76603;BME280;65075;48.390;17.598;2023-12-20T03:45:32;99581.91;;;2.87;72.30
76603;BME280;65075;48.390;17.598;2023-12-20T03:47:58;99547.56;;;0.86;77.94
76603;BME280;65075;48.390;17.598;2023-12-20T03:50:25;99591.78;;;0.83;81.34
76603;BME280;65075;48.390;17.598;2023-12-20T03:52:51;99567.41;;;3.31;71.86
76603;BME280;65075;48.390;17.598;2023-12-20T03:55:18;99588.72;;;2.90;71.61
76603;BME280;65075;48.390;17.598;2023-12-20T03:57:44;99602.28;;;2.08;74.13
76603;BME280;65075;48.390;17.598;2023-12-20T04:00:10;99574.63;;;0.65;80.57
76603;BME280;65075;48.390;17.598;2023-12-20T04:02:43;99573.53;;;2.96;73.21
76603;BME280;65075;48.390;17.598;2023-12-20T04:05:09;99558.28;;;0.27;82.90
76603;BME280;65075;48.390;17.598;2023-12-20T04:07:36;99590.31;;;1.20;81.95
76603;BME280;65075;48.390;17.598;2023-12-20T04:10:02;99565.75;;;0.44;82.23
76603;BME280;65075;48.390;17.598;2023-12-20T04:12:30;99587.84;;;0.86;83.61
76603;BME280;65075;48.390;17.598;2023-12-20T04:14:57;99580.59;;;1.32;79.86
76603;BME280;65075;48.390;17.598;2023-12-20T04:17:23;99580.03;;;0.71;81.74
76603;BME280;65075;48.390;17.598;2023-12-20T04:19:49;99567.81;;;2.85;74.70
76603;BME280;65075;48.390;17.598;2023-12-20T04:22:17;99569.03;;;2.89;74.22
76603;BME280;65075;48.390;17.598;2023-12-20T04:24:43;99537.53;;;1.52;75.27
76603;BME280;65075;48.390;17.598;2023-12-20T04:27:09;99554.50;;;1.52;81.29
76603;BME280;65075;48.390;17.598;2023-12-20T04:29:34;99527.13;;;0.85;80.54
76603;BME280;65075;48.390;17.598;2023-12-20T04:32:00;99544.72;;;2.40;74.22
76603;BME280;65075;48.390;17.598;2023-12-20T04:34:25;99543.53;;;3.53;71.60
76603;BME280;65075;48.390;17.598;2023-12-20T04:36:53;99564.25;;;4.37;67.88
76603;BME280;65075;48.390;17.598;2023-12-20T04:39:19;99564.94;;;3.30;71.65
76603;BME280;65075;48.390;17.598;2023-12-20T04:41:44;99569.00;;;3.93;70.93
76603;BME280;65075;48.390;17.598;2023-12-20T04:44:10;99545.06;;;4.56;65.99
76603;BME280;65075;48.390;17.598;2023-12-20T04:46:35;99562.38;;;3.35;70.05
76603;BME280;65075;48.390;17.598;2023-12-20T04:49:01;99537.75;;;4.16;66.29
76603;BME280;65075;48.390;17.598;2023-12-20T04:51:28;99535.59;;;2.16;71.08
76603;BME280;65075;48.390;17.598;2023-12-20T04:53:54;99552.03;;;4.04;68.25
76603;BME280;65075;48.390;17.598;2023-12-20T04:56:20;99555.78;;;4.03;67.26
76603;BME280;65075;48.390;17.598;2023-12-20T04:58:45;99547.25;;;2.66;70.46
76603;BME280;65075;48.390;17.598;2023-12-20T05:01:12;99543.41;;;1.16;76.71
76603;BME280;65075;48.390;17.598;2023-12-20T05:03:38;99525.13;;;2.33;74.25
76603;BME280;65075;48.390;17.598;2023-12-20T05:06:04;99541.09;;;1.26;77.06
76603;BME280;65075;48.390;17.598;2023-12-20T05:08:30;99541.09;;;1.39;77.06
76603;BME280;65075;48.390;17.598;2023-12-20T05:10:56;99543.25;;;0.58;80.96
76603;BME280;65075;48.390;17.598;2023-12-20T05:13:23;99553.59;;;1.71;78.30
76603;BME280;65075;48.390;17.598;2023-12-20T05:15:49;99559.97;;;0.80;80.66
76603;BME280;65075;48.390;17.598;2023-12-20T05:18:14;99573.09;;;4.44;67.62
76603;BME280;65075;48.390;17.598;2023-12-20T05:20:40;99538.19;;;4.84;66.13
76603;BME280;65075;48.390;17.598;2023-12-20T05:23:06;99532.28;;;4.75;63.28
76603;BME280;65075;48.390;17.598;2023-12-20T05:25:32;99538.84;;;2.25;72.81
76603;BME280;65075;48.390;17.598;2023-12-20T05:27:57;99548.19;;;1.78;76.77
76603;BME280;65075;48.390;17.598;2023-12-20T05:30:24;99539.75;;;0.91;79.87
76603;BME280;65075;48.390;17.598;2023-12-20T05:32:50;99533.03;;;2.28;73.45
76603;BME280;65075;48.390;17.598;2023-12-20T05:35:16;99541.03;;;3.15;72.19
76603;BME280;65075;48.390;17.598;2023-12-20T05:37:42;99533.47;;;5.02;65.04
76603;BME280;65075;48.390;17.598;2023-12-20T05:40:08;99522.34;;;5.10;64.47
76603;BME280;65075;48.390;17.598;2023-12-20T05:42:37;99520.09;;;1.67;73.26
76603;BME280;65075;48.390;17.598;2023-12-20T05:45:05;99546.97;;;3.78;67.96
76603;BME280;65075;48.390;17.598;2023-12-20T05:47:31;99550.72;;;1.66;75.42
76603;BME280;65075;48.390;17.598;2023-12-20T05:49:56;99546.28;;;0.16;82.07
76603;BME280;65075;48.390;17.598;2023-12-20T05:52:23;99545.50;;;1.01;80.65
76603;BME280;65075;48.390;17.598;2023-12-20T05:54:49;99545.31;;;1.80;78.93
76603;BME280;65075;48.390;17.598;2023-12-20T05:57:14;99541.84;;;2.66;75.04
76603;BME280;65075;48.390;17.598;2023-12-20T05:59:40;99542.03;;;3.39;71.08
76603;BME280;65075;48.390;17.598;2023-12-20T06:02:06;99517.28;;;1.49;75.42
76603;BME280;65075;48.390;17.598;2023-12-20T06:04:32;99530.72;;;3.06;71.71
76603;BME280;65075;48.390;17.598;2023-12-20T06:06:58;99518.78;;;3.38;69.56
76603;BME280;65075;48.390;17.598;2023-12-20T06:09:27;99541.13;;;2.53;72.98
76603;BME280;65075;48.390;17.598;2023-12-20T06:11:52;99526.00;;;2.27;72.34
76603;BME280;65075;48.390;17.598;2023-12-20T06:14:18;99528.41;;;2.35;72.97
76603;BME280;65075;48.390;17.598;2023-12-20T06:16:45;99539.66;;;3.97;68.86
76603;BME280;65075;48.390;17.598;2023-12-20T06:19:11;99522.34;;;3.57;69.38
76603;BME280;65075;48.390;17.598;2023-12-20T06:21:38;99543.22;;;3.43;70.89
76603;BME280;65075;48.390;17.598;2023-12-20T06:24:04;99534.53;;;1.09;78.52
76603;BME280;65075;48.390;17.598;2023-12-20T06:26:30;99540.16;;;0.48;81.55
76603;BME280;65075;48.390;17.598;2023-12-20T06:28:55;99540.69;;;1.87;78.50
76603;BME280;65075;48.390;17.598;2023-12-20T06:31:24;99554.91;;;3.73;71.04
76603;BME280;65075;48.390;17.598;2023-12-20T06:33:52;99547.81;;;2.44;72.13
76603;BME280;65075;48.390;17.598;2023-12-20T06:36:24;99512.91;;;4.90;64.17
76603;BME280;65075;48.390;17.598;2023-12-20T06:38:50;99504.91;;;4.19;65.56
76603;BME280;65075;48.390;17.598;2023-12-20T06:41:16;99549.53;;;1.49;75.66
76603;BME280;65075;48.390;17.598;2023-12-20T06:43:42;99571.94;;;1.10;78.75
76603;BME280;65075;48.390;17.598;2023-12-20T06:46:07;99573.63;;;0.66;81.32
76603;BME280;65075;48.390;17.598;2023-12-20T06:48:34;99569.53;;;3.05;74.11
76603;BME280;65075;48.390;17.598;2023-12-20T06:51:01;99573.59;;;1.31;78.46
76603;BME280;65075;48.390;17.598;2023-12-20T06:53:31;99566.06;;;2.04;75.61
76603;BME280;65075;48.390;17.598;2023-12-20T06:55:56;99563.75;;;1.63;80.64
76603;BME280;65075;48.390;17.598;2023-12-20T06:58:22;99550.22;;;3.08;73.56
76603;BME280;65075;48.390;17.598;2023-12-20T07:00:48;99531.38;;;3.26;70.05
76603;BME280;65075;48.390;17.598;2023-12-20T07:03:14;99521.69;;;2.51;72.87
76603;BME280;65075;48.390;17.598;2023-12-20T07:05:40;99542.09;;;2.89;72.54
76603;BME280;65075;48.390;17.598;2023-12-20T07:08:06;99536.25;;;3.35;71.10
76603;BME280;65075;48.390;17.598;2023-12-20T07:10:32;99545.34;;;4.37;67.54
76603;BME280;65075;48.390;17.598;2023-12-20T07:12:57;99536.28;;;4.01;66.35
76603;BME280;65075;48.390;17.598;2023-12-20T07:15:23;99562.44;;;2.23;72.29
76603;BME280;65075;48.390;17.598;2023-12-20T07:17:49;99551.50;;;2.49;72.74
76603;BME280;65075;48.390;17.598;2023-12-20T07:20:14;99546.28;;;2.23;76.76
76603;BME280;65075;48.390;17.598;2023-12-20T07:22:40;99546.25;;;3.28;70.54
76603;BME280;65075;48.390;17.598;2023-12-20T07:25:06;99549.53;;;1.56;77.69
76603;BME280;65075;48.390;17.598;2023-12-20T07:27:32;99528.16;;;0.84;80.57
76603;BME280;65075;48.390;17.598;2023-12-20T07:29:57;99567.47;;;3.25;71.64
76603;BME280;65075;48.390;17.598;2023-12-20T07:32:24;99539.97;;;2.42;72.77
76603;BME280;65075;48.390;17.598;2023-12-20T07:34:50;99586.56;;;1.34;78.64
76603;BME280;65075;48.390;17.598;2023-12-20T07:37:17;99570.19;;;1.55;79.82
76603;BME280;65075;48.390;17.598;2023-12-20T07:39:42;99555.00;;;1.10;81.50
76603;BME280;65075;48.390;17.598;2023-12-20T07:42:08;99558.41;;;2.07;75.52
76603;BME280;65075;48.390;17.598;2023-12-20T07:44:34;99536.91;;;1.56;76.74
76603;BME280;65075;48.390;17.598;2023-12-20T07:47:01;99562.03;;;3.07;74.33
76603;BME280;65075;48.390;17.598;2023-12-20T07:49:27;99561.84;;;4.47;66.98
76603;BME280;65075;48.390;17.598;2023-12-20T07:51:54;99549.22;;;1.20;78.74
76603;BME280;65075;48.390;17.598;2023-12-20T07:54:20;99552.53;;;3.65;72.61
76603;BME280;65075;48.390;17.598;2023-12-20T07:56:46;99563.03;;;3.73;69.82
76603;BME280;65075;48.390;17.598;2023-12-20T07:59:12;99562.91;;;3.80;69.88
76603;BME280;65075;48.390;17.598;2023-12-20T08:01:37;99565.41;;;2.15;75.08
76603;BME280;65075;48.390;17.598;2023-12-20T08:04:04;99536.81;;;1.83;75.73
76603;BME280;65075;48.390;17.598;2023-12-20T08:06:30;99563.91;;;3.31;71.81
76603;BME280;65075;48.390;17.598;2023-12-20T08:08:55;99577.72;;;3.16;71.56
76603;BME280;65075;48.390;17.598;2023-12-20T08:11:21;99558.22;;;3.39;71.84
76603;BME280;65075;48.390;17.598;2023-12-20T08:13:46;99581.41;;;4.13;68.54
76603;BME280;65075;48.390;17.598;2023-12-20T08:16:12;99559.41;;;4.69;66.17
76603;BME280;65075;48.390;17.598;2023-12-20T08:18:39;99569.25;;;4.22;67.35
76603;BME280;65075;48.390;17.598;2023-12-20T08:21:06;99506.97;;;2.22;73.31
76603;BME280;65075;48.390;17.598;2023-12-20T08:23:34;99550.03;;;1.07;80.07
76603;BME280;65075;48.390;17.598;2023-12-20T08:26:09;99532.69;;;0.83;82.08
76603;BME280;65075;48.390;17.598;2023-12-20T08:28:34;99554.59;;;2.21;78.53
76603;BME280;65075;48.390;17.598;2023-12-20T08:31:00;99563.91;;;3.67;73.03
76603;BME280;65075;48.390;17.598;2023-12-20T08:33:25;99561.06;;;3.01;73.72
76603;BME280;65075;48.390;17.598;2023-12-20T08:35:51;99571.53;;;3.88;71.70
76603;BME280;65075;48.390;17.598;2023-12-20T08:38:17;99577.28;;;4.40;68.66
76603;BME280;65075;48.390;17.598;2023-12-20T08:40:43;99576.91;;;4.25;68.87
76603;BME280;65075;48.390;17.598;2023-12-20T08:43:10;99582.06;;;0.89;80.59
76603;BME280;65075;48.390;17.598;2023-12-20T08:45:36;99550.03;;;0.54;82.65
76603;BME280;65075;48.390;17.598;2023-12-20T08:48:02;99576.31;;;0.66;84.14
76603;BME280;65075;48.390;17.598;2023-12-20T08:50:29;99546.34;;;0.75;83.43
76603;BME280;65075;48.390;17.598;2023-12-20T08:52:55;99574.56;;;1.56;81.29
76603;BME280;65075;48.390;17.598;2023-12-20T08:55:21;99581.91;;;2.87;75.79
76603;BME280;65075;48.390;17.598;2023-12-20T08:57:47;99589.78;;;2.58;77.60
76603;BME280;65075;48.390;17.598;2023-12-20T09:00:13;99563.97;;;3.00;75.01
76603;BME280;65075;48.390;17.598;2023-12-20T09:02:39;99554.81;;;1.76;76.45
76603;BME280;65075;48.390;17.598;2023-12-20T09:05:05;99571.09;;;1.94;77.87
76603;BME280;65075;48.390;17.598;2023-12-20T09:07:30;99544.88;;;0.86;82.67
76603;BME280;65075;48.390;17.598;2023-12-20T09:09:58;99545.03;;;1.24;81.95
76603;BME280;65075;48.390;17.598;2023-12-20T09:12:24;99570.75;;;2.21;81.52
76603;BME280;65075;48.390;17.598;2023-12-20T09:14:51;99550.44;;;3.67;74.59
76603;BME280;65075;48.390;17.598;2023-12-20T09:17:17;99569.69;;;1.85;79.94
76603;BME280;65075;48.390;17.598;2023-12-20T09:19:44;99555.56;;;1.96;76.81
76603;BME280;65075;48.390;17.598;2023-12-20T09:22:10;99557.53;;;2.76;77.11
76603;BME280;65075;48.390;17.598;2023-12-20T09:24:36;99558.66;;;1.48;81.49
76603;BME280;65075;48.390;17.598;2023-12-20T09:27:01;99548.44;;;0.80;84.83
76603;BME280;65075;48.390;17.598;2023-12-20T09:29:28;99549.19;;;2.84;80.82
76603;BME280;65075;48.390;17.598;2023-12-20T09:31:53;99546.59;;;4.23;70.84
76603;BME280;65075;48.390;17.598;2023-12-20T09:34:19;99573.03;;;4.62;69.72
76603;BME280;65075;48.390;17.598;2023-12-20T09:36:44;99562.88;;;2.82;75.98
76603;BME280;65075;48.390;17.598;2023-12-20T09:39:19;99549.97;;;3.70;72.12
76603;BME280;65075;48.390;17.598;2023-12-20T09:42:00;99531.19;;;1.84;78.57
76603;BME280;65075;48.390;17.598;2023-12-20T09:44:27;99489.22;;;1.26;80.67
76603;BME280;65075;48.390;17.598;2023-12-20T09:46:55;99518.56;;;1.34;81.73
76603;BME280;65075;48.390;17.598;2023-12-20T09:49:21;99519.91;;;2.07;79.60
76603;BME280;65075;48.390;17.598;2023-12-20T09:51:47;99516.06;;;1.45;81.35
76603;BME280;65075;48.390;17.598;2023-12-20T09:54:21;99523.44;;;2.01;79.53
76603;BME280;65075;48.390;17.598;2023-12-20T09:56:47;99503.88;;;2.74;76.62
76603;BME280;65075;48.390;17.598;2023-12-20T09:59:13;99495.75;;;2.81;78.69
76603;BME280;65075;48.390;17.598;2023-12-20T10:01:44;99503.63;;;4.21;72.25
76603;BME280;65075;48.390;17.598;2023-12-20T10:04:10;99482.75;;;2.71;74.75
76603;BME280;65075;48.390;17.598;2023-12-20T10:06:42;99496.28;;;2.09;79.71
76603;BME280;65075;48.390;17.598;2023-12-20T10:09:09;99488.56;;;1.88;80.55
76603;BME280;65075;48.390;17.598;2023-12-20T10:11:36;99493.19;;;1.74;81.40
76603;BME280;65075;48.390;17.598;2023-12-20T10:14:06;99489.56;;;3.17;76.76
76603;BME280;65075;48.390;17.598;2023-12-20T10:16:32;99480.97;;;2.09;79.18
76603;BME280;65075;48.390;17.598;2023-12-20T10:19:00;99485.34;;;2.84;77.05
76603;BME280;65075;48.390;17.598;2023-12-20T10:21:27;99488.28;;;4.03;72.03
76603;BME280;65075;48.390;17.598;2023-12-20T10:23:54;99449.38;;;3.15;75.79
76603;BME280;65075;48.390;17.598;2023-12-20T10:26:24;99493.56;;;6.07;66.90
76603;BME280;65075;48.390;17.598;2023-12-20T10:28:59;99473.06;;;4.97;68.02
76603;BME280;65075;48.390;17.598;2023-12-20T10:31:35;99458.50;;;4.86;69.58
76603;BME280;65075;48.390;17.598;2023-12-20T10:34:02;99490.22;;;5.89;67.45
76603;BME280;65075;48.390;17.598;2023-12-20T10:36:32;99492.78;;;5.44;67.80
76603;BME280;65075;48.390;17.598;2023-12-20T10:38:59;99486.00;;;5.06;67.50
76603;BME280;65075;48.390;17.598;2023-12-20T10:41:28;99485.97;;;5.41;66.82
76603;BME280;65075;48.390;17.598;2023-12-20T10:44:04;99468.00;;;5.24;67.73
76603;BME280;65075;48.390;17.598;2023-12-20T10:46:33;99445.59;;;4.65;69.42
76603;BME280;65075;48.390;17.598;2023-12-20T10:49:02;99464.03;;;5.66;68.29
76603;BME280;65075;48.390;17.598;2023-12-20T10:51:28;99433.81;;;4.71;70.11
76603;BME280;65075;48.390;17.598;2023-12-20T10:53:56;99442.69;;;6.09;67.60
76603;BME280;65075;48.390;17.598;2023-12-20T10:56:22;99451.31;;;4.92;73.07
76603;BME280;65075;48.390;17.598;2023-12-20T10:58:52;99398.56;;;4.66;75.04
76603;BME280;65075;48.390;17.598;2023-12-20T11:01:18;99437.91;;;5.20;77.11
76603;BME280;65075;48.390;17.598;2023-12-20T11:03:53;99407.63;;;5.74;74.37
76603;BME280;65075;48.390;17.598;2023-12-20T11:06:35;99426.25;;;7.37;68.14
76603;BME280;65075;48.390;17.598;2023-12-20T11:12:10;99393.72;;;6.27;71.98
76603;BME280;65075;48.390;17.598;2023-12-20T11:14:51;99419.56;;;6.68;72.71
76603;BME280;65075;48.390;17.598;2023-12-20T11:17:18;99410.13;;;7.09;71.08
76603;BME280;65075;48.390;17.598;2023-12-20T11:22:21;99366.00;;;6.97;70.85
76603;BME280;65075;48.390;17.598;2023-12-20T11:24:48;99401.19;;;8.27;71.26
76603;BME280;65075;48.390;17.598;2023-12-20T11:27:14;99369.22;;;6.94;74.67
76603;BME280;65075;48.390;17.598;2023-12-20T11:29:40;99376.47;;;7.54;73.91
76603;BME280;65075;48.390;17.598;2023-12-20T11:34:47;99373.72;;;8.60;70.54
76603;BME280;65075;48.390;17.598;2023-12-20T11:37:14;99389.16;;;8.55;70.55
76603;BME280;65075;48.390;17.598;2023-12-20T11:39:40;99380.56;;;9.15;68.28
76603;BME280;65075;48.390;17.598;2023-12-20T11:42:06;99393.56;;;9.03;68.70
76603;BME280;65075;48.390;17.598;2023-12-20T11:44:32;99399.28;;;9.58;66.67
76603;BME280;65075;48.390;17.598;2023-12-20T11:46:58;99392.78;;;9.69;65.53
76603;BME280;65075;48.390;17.598;2023-12-20T11:49:24;99370.59;;;8.15;69.23
76603;BME280;65075;48.390;17.598;2023-12-20T11:51:50;99394.97;;;9.72;65.85
76603;BME280;65075;48.390;17.598;2023-12-20T11:54:16;99384.53;;;8.24;68.91
76603;BME280;65075;48.390;17.598;2023-12-20T11:56:42;99391.00;;;8.44;70.29
76603;BME280;65075;48.390;17.598;2023-12-20T11:59:08;99350.44;;;9.42;64.78
76603;BME280;65075;48.390;17.598;2023-12-20T12:01:34;99346.75;;;9.01;66.16
76603;BME280;65075;48.390;17.598;2023-12-20T12:04:07;99370.97;;;9.02;65.76
76603;BME280;65075;48.390;17.598;2023-12-20T12:06:33;99359.19;;;9.39;65.84
76603;BME280;65075;48.390;17.598;2023-12-20T12:08:59;99375.78;;;8.85;67.39
76603;BME280;65075;48.390;17.598;2023-12-20T12:11:25;99330.75;;;9.14;65.61
76603;BME280;65075;48.390;17.598;2023-12-20T12:13:51;99343.41;;;8.89;66.77
76603;BME280;65075;48.390;17.598;2023-12-20T12:16:17;99345.47;;;8.67;66.41
76603;BME280;65075;48.390;17.598;2023-12-20T12:18:44;99335.97;;;9.26;64.61
76603;BME280;65075;48.390;17.598;2023-12-20T12:21:10;99363.19;;;9.21;64.87
76603;BME280;65075;48.390;17.598;2023-12-20T12:23:36;99362.91;;;9.28;64.73
76603;BME280;65075;48.390;17.598;2023-12-20T12:26:04;99371.88;;;9.13;65.00
76603;BME280;65075;48.390;17.598;2023-12-20T12:28:29;99361.91;;;8.87;65.72
76603;BME280;65075;48.390;17.598;2023-12-20T12:31:00;99358.69;;;8.95;66.24
76603;BME280;65075;48.390;17.598;2023-12-20T12:33:26;99373.47;;;9.09;64.89
76603;BME280;65075;48.390;17.598;2023-12-20T12:35:52;99364.22;;;10.02;61.76
76603;BME280;65075;48.390;17.598;2023-12-20T12:38:24;99354.50;;;9.24;64.25
76603;BME280;65075;48.390;17.598;2023-12-20T12:40:50;99360.97;;;8.66;66.23
76603;BME280;65075;48.390;17.598;2023-12-20T12:43:16;99324.44;;;8.99;63.90
76603;BME280;65075;48.390;17.598;2023-12-20T12:45:41;99329.50;;;8.38;65.41
76603;BME280;65075;48.390;17.598;2023-12-20T12:48:08;99366.34;;;9.03;64.92
76603;BME280;65075;48.390;17.598;2023-12-20T12:50:34;99359.19;;;9.39;63.82
76603;BME280;65075;48.390;17.598;2023-12-20T12:53:00;99366.97;;;9.20;63.84
76603;BME280;65075;48.390;17.598;2023-12-20T12:55:28;99368.78;;;9.66;62.95
76603;BME280;65075;48.390;17.598;2023-12-20T12:57:54;99360.97;;;9.13;63.89
76603;BME280;65075;48.390;17.598;2023-12-20T13:00:20;99349.88;;;9.25;63.06
76603;BME280;65075;48.390;17.598;2023-12-20T13:02:47;99373.06;;;9.42;63.81
76603;BME280;65075;48.390;17.598;2023-12-20T13:05:13;99345.34;;;9.70;62.43
76603;BME280;65075;48.390;17.598;2023-12-20T13:07:38;99361.09;;;8.86;64.85